createdAt,value
2023-01-17T00:01:56.046Z,1.52
2023-01-17T00:04:41.647Z,2.00
2023-01-17T00:07:30.659Z,0.77
2023-01-17T00:10:00.137Z,17.98
2023-01-17T00:12:29.974Z,1.27
2023-01-17T00:14:58.289Z,1.13
2023-01-17T00:17:27.143Z,2.88
2023-01-17T00:20:13.190Z,1.73
2023-01-17T00:22:59.122Z,2.28
2023-01-17T00:25:49.112Z,1.73
2023-01-17T00:28:16.522Z,0.85
2023-01-17T00:30:43.542Z,0.98
2023-01-17T00:33:10.343Z,0.70
2023-01-17T00:35:37.320Z,1.98
2023-01-17T00:38:09.572Z,1.40
2023-01-17T00:40:38.722Z,3.65
2023-01-17T00:43:25.765Z,1.23
2023-01-17T00:46:12.174Z,1.38
2023-01-17T00:48:58.389Z,0.75
2023-01-17T00:51:44.543Z,2.55
2023-01-17T00:54:30.699Z,0.90
2023-01-17T00:57:17.090Z,2.47
2023-01-17T01:00:03.019Z,1.77
2023-01-17T01:02:48.894Z,4.78
2023-01-17T01:05:35.677Z,3.13
2023-01-17T01:08:21.591Z,2.67
2023-01-17T01:11:08.079Z,1.38
2023-01-17T01:13:53.578Z,2.25
2023-01-17T01:16:38.942Z,2.50
2023-01-17T01:19:24.973Z,2.88
2023-01-17T01:22:10.494Z,2.38
2023-01-17T01:24:56.919Z,1.90
2023-01-17T01:27:42.663Z,1.42
2023-01-17T01:30:28.765Z,3.15
2023-01-17T01:33:14.419Z,2.45
2023-01-17T01:35:42.041Z,1.30
2023-01-17T01:38:09.483Z,2.03
2023-01-17T01:40:42.673Z,1.30
2023-01-17T01:43:13.063Z,1.60
2023-01-17T01:45:40.584Z,1.15
2023-01-17T01:48:20.598Z,1.27
2023-01-17T01:50:49.495Z,3.22
2023-01-17T01:53:17.921Z,1.40
2023-01-17T01:55:49.310Z,1.83
2023-01-17T01:58:23.305Z,3.03
2023-01-17T02:00:50.553Z,1.67
2023-01-17T02:03:21.854Z,1.77
2023-01-17T02:05:48.988Z,1.42
2023-01-17T02:08:19.274Z,2.88
2023-01-17T02:10:46.416Z,2.33
2023-01-17T02:13:16.703Z,1.20
2023-01-17T02:16:18.849Z,1.85
2023-01-17T02:19:16.519Z,1.48
2023-01-17T02:21:43.252Z,1.73
2023-01-17T02:24:28.761Z,1.70
2023-01-17T02:27:07.210Z,1.40
2023-01-17T02:30:12.763Z,0.98
2023-01-17T02:32:49.123Z,1.33
2023-01-17T02:35:32.769Z,2.35
2023-01-17T02:38:20.706Z,2.15
2023-01-17T02:41:03.632Z,1.48
2023-01-17T02:43:31.327Z,1.45
2023-01-17T02:45:58.295Z,1.80
2023-01-17T02:48:29.298Z,1.60
2023-01-17T02:51:22.535Z,1.02
2023-01-17T02:53:52.420Z,3.42
2023-01-17T02:56:52.174Z,1.20
2023-01-17T02:59:43.877Z,2.60
2023-01-17T03:02:31.137Z,1.42
2023-01-17T03:05:06.528Z,1.55
2023-01-17T03:07:34.158Z,1.42
2023-01-17T03:10:04.644Z,1.65
2023-01-17T03:12:35.121Z,2.15
2023-01-17T03:15:01.987Z,0.98
2023-01-17T03:17:32.685Z,5.18
2023-01-17T03:19:59.606Z,1.90
2023-01-17T03:22:26.459Z,3.05
2023-01-17T03:24:53.378Z,1.73
2023-01-17T03:27:20.235Z,1.70
2023-01-17T03:29:47.029Z,1.65
2023-01-17T03:32:13.881Z,1.50
2023-01-17T03:34:40.669Z,3.50
2023-01-17T03:37:07.497Z,2.10
2023-01-17T03:39:34.280Z,2.88
2023-01-17T03:42:01.057Z,2.10
2023-01-17T03:44:27.867Z,4.13
2023-01-17T03:46:54.685Z,3.03
2023-01-17T03:49:21.837Z,1.40
2023-01-17T03:51:48.800Z,1.50
2023-01-17T03:54:15.717Z,3.72
2023-01-17T03:56:42.949Z,2.17
2023-01-17T03:59:12.160Z,2.30
2023-01-17T04:01:39.938Z,3.63
2023-01-17T04:04:06.751Z,2.08
2023-01-17T04:06:33.734Z,2.55
2023-01-17T04:09:00.630Z,1.80
2023-01-17T04:11:27.815Z,1.65
2023-01-17T04:13:55.268Z,2.10
2023-01-17T04:16:27.059Z,3.38
2023-01-17T04:18:53.984Z,3.20
2023-01-17T04:21:21.023Z,2.00
2023-01-17T04:23:47.899Z,1.38
2023-01-17T04:26:14.829Z,2.25
2023-01-17T04:28:41.866Z,1.83
2023-01-17T04:31:15.797Z,1.60
2023-01-17T04:33:42.723Z,1.75
2023-01-17T04:36:09.899Z,2.03
2023-01-17T04:38:36.741Z,1.60
2023-01-17T04:41:03.820Z,2.40
2023-01-17T04:43:30.693Z,1.58
2023-01-17T04:45:58.546Z,2.15
2023-01-17T04:48:26.189Z,1.85
2023-01-17T04:51:00.398Z,6.55
2023-01-17T04:53:27.947Z,3.53
2023-01-17T04:55:55.245Z,7.97
2023-01-17T04:58:22.239Z,2.75
2023-01-17T05:00:51.006Z,1.98
2023-01-17T05:03:19.398Z,3.58
2023-01-17T05:05:47.653Z,1.73
2023-01-17T05:08:15.364Z,2.42
2023-01-17T05:10:46.371Z,1.52
2023-01-17T05:13:14.076Z,4.32
2023-01-17T05:15:41.361Z,1.20
2023-01-17T05:18:12.266Z,1.88
2023-01-17T05:20:39.186Z,1.90
2023-01-17T05:23:06.208Z,3.45
2023-01-17T05:25:33.743Z,1.95
2023-01-17T05:28:00.885Z,1.55
2023-01-17T05:30:35.162Z,3.03
2023-01-17T05:33:02.193Z,2.42
2023-01-17T05:35:32.795Z,2.20
2023-01-17T05:37:59.813Z,2.25
2023-01-17T05:40:30.817Z,2.20
2023-01-17T05:42:59.806Z,2.13
2023-01-17T05:45:28.739Z,3.33
2023-01-17T05:47:56.620Z,3.40
2023-01-17T05:50:35.833Z,4.97
2023-01-17T05:53:08.669Z,3.60
2023-01-17T05:55:36.057Z,2.63
2023-01-17T05:58:03.882Z,2.88
2023-01-17T06:00:31.856Z,4.15
2023-01-17T06:03:00.177Z,3.22
2023-01-17T06:05:29.165Z,5.45
2023-01-17T06:07:56.627Z,3.97
2023-01-17T06:10:24.357Z,7.82
2023-01-17T06:13:05.005Z,4.15
2023-01-17T06:15:31.954Z,4.63
2023-01-17T06:18:03.248Z,4.20
2023-01-17T06:20:30.050Z,4.15
2023-01-17T06:22:59.624Z,6.93
2023-01-17T06:25:26.452Z,12.82
2023-01-17T06:27:55.299Z,8.57
2023-01-17T06:30:22.253Z,11.13
2023-01-17T06:32:54.125Z,9.02
2023-01-17T06:35:22.133Z,11.73
2023-01-17T06:37:55.267Z,9.02
2023-01-17T06:40:22.780Z,11.27
2023-01-17T06:42:50.310Z,9.60
2023-01-17T06:45:17.557Z,5.93
2023-01-17T06:47:44.381Z,5.97
2023-01-17T06:50:13.761Z,25.90
2023-01-17T06:52:41.662Z,11.68
2023-01-17T06:55:09.283Z,11.20
2023-01-17T06:57:36.337Z,5.72
2023-01-17T07:00:04.517Z,13.25
2023-01-17T07:02:31.355Z,16.20
2023-01-17T07:04:58.391Z,13.60
2023-01-17T07:07:25.160Z,7.57
2023-01-17T07:09:51.964Z,10.98
2023-01-17T07:12:18.892Z,11.95
2023-01-17T07:14:45.735Z,8.10
2023-01-17T07:17:12.548Z,6.28
2023-01-17T07:19:39.708Z,5.88
2023-01-17T07:22:06.473Z,5.63
2023-01-17T07:24:36.320Z,6.57
2023-01-17T07:27:03.553Z,9.07
2023-01-17T07:29:30.350Z,8.57
2023-01-17T07:31:57.267Z,7.97
2023-01-17T07:34:24.131Z,5.65
2023-01-17T07:36:51.036Z,6.90
2023-01-17T07:39:17.945Z,6.47
2023-01-17T07:41:45.010Z,4.93
2023-01-17T07:44:12.096Z,6.20
2023-01-17T07:46:39.127Z,4.82
2023-01-17T07:49:06.089Z,6.55
2023-01-17T07:51:33.078Z,7.38
2023-01-17T07:53:59.960Z,5.60
2023-01-17T07:56:27.328Z,5.13
2023-01-17T07:58:54.371Z,4.57
2023-01-17T08:01:21.727Z,6.13
2023-01-17T08:03:53.376Z,8.75
2023-01-17T08:06:25.301Z,9.13
2023-01-17T08:08:56.468Z,6.53
2023-01-17T08:11:23.291Z,6.05
2023-01-17T08:13:50.739Z,5.07
2023-01-17T08:16:17.702Z,5.88
2023-01-17T08:18:44.499Z,6.90
2023-01-17T08:21:16.861Z,5.57
2023-01-17T08:24:05.902Z,5.90
2023-01-17T08:26:38.778Z,9.13
2023-01-17T08:29:05.765Z,6.20
2023-01-17T08:31:35.466Z,4.97
2023-01-17T08:34:02.634Z,6.30
2023-01-17T08:36:31.211Z,5.68
2023-01-17T08:38:58.855Z,6.97
2023-01-17T08:41:27.955Z,4.75
2023-01-17T08:43:54.828Z,6.47
2023-01-17T08:46:22.452Z,5.70
2023-01-17T08:48:53.509Z,4.18
2023-01-17T08:51:20.896Z,4.95
2023-01-17T08:53:48.625Z,3.20
2023-01-17T08:56:15.463Z,3.50
2023-01-17T08:58:42.326Z,3.20
2023-01-17T09:01:09.296Z,3.97
2023-01-17T09:03:38.371Z,7.20
2023-01-17T09:06:08.255Z,4.38
2023-01-17T09:08:35.650Z,5.47
2023-01-17T09:11:06.330Z,7.43
2023-01-17T09:13:33.515Z,4.68
2023-01-17T09:16:00.685Z,5.53
2023-01-17T09:18:29.539Z,6.70
2023-01-17T09:20:59.211Z,5.72
2023-01-17T09:23:28.383Z,7.80
2023-01-17T09:25:59.550Z,6.57
2023-01-17T09:28:27.369Z,4.63
2023-01-17T09:30:54.665Z,4.88
2023-01-17T09:33:24.477Z,5.65
2023-01-17T09:35:51.327Z,4.38
2023-01-17T09:38:18.137Z,4.57
2023-01-17T09:40:47.411Z,3.40
2023-01-17T09:43:36.981Z,3.58
2023-01-17T09:46:05.749Z,9.35
2023-01-17T09:48:38.125Z,4.85
2023-01-17T09:51:21.363Z,4.90
2023-01-17T09:53:48.841Z,2.92
2023-01-17T09:56:29.590Z,3.85
2023-01-17T09:59:18.784Z,2.83
2023-01-17T10:02:15.604Z,4.28
2023-01-17T10:04:55.592Z,3.33
2023-01-17T10:07:37.423Z,3.25
2023-01-17T10:10:22.623Z,3.45
2023-01-17T10:13:08.974Z,2.20
2023-01-17T10:15:48.169Z,2.35
2023-01-17T10:18:52.740Z,2.53
2023-01-17T10:21:34.779Z,3.53
2023-01-17T10:24:29.437Z,3.17
2023-01-17T10:26:59.957Z,6.10
2023-01-17T10:29:33.034Z,4.05
2023-01-17T10:32:01.585Z,5.13
2023-01-17T10:34:44.676Z,3.50
2023-01-17T10:37:24.306Z,5.15
2023-01-17T10:39:54.142Z,3.60
2023-01-17T10:42:31.908Z,4.35
2023-01-17T10:45:16.313Z,4.13
2023-01-17T10:47:50.882Z,3.13
2023-01-17T10:50:22.766Z,5.20
2023-01-17T10:53:21.566Z,4.05
2023-01-17T10:55:54.867Z,3.40
2023-01-17T10:58:21.832Z,3.40
2023-01-17T11:01:05.996Z,4.72
2023-01-17T11:03:33.515Z,3.05
2023-01-17T11:06:21.551Z,5.00
2023-01-17T11:08:59.597Z,4.20
2023-01-17T11:11:33.082Z,6.32
2023-01-17T11:14:03.012Z,8.90
2023-01-17T11:16:31.632Z,5.95
2023-01-17T11:19:38.577Z,4.15
2023-01-17T11:22:07.297Z,5.13
2023-01-17T11:24:41.951Z,5.90
2023-01-17T11:27:28.234Z,5.93
2023-01-17T11:30:20.544Z,7.65
2023-01-17T11:33:06.301Z,7.60
2023-01-17T11:35:36.783Z,6.18
2023-01-17T11:41:14.452Z,4.13
2023-01-17T11:44:02.094Z,6.57
2023-01-17T11:46:29.717Z,4.32
2023-01-17T11:48:59.637Z,4.78
2023-01-17T11:51:34.270Z,4.93
2023-01-17T11:54:28.903Z,4.45
2023-01-17T11:57:00.495Z,4.35
2023-01-17T11:59:31.742Z,3.63
2023-01-17T12:02:19.047Z,2.90
2023-01-17T12:04:54.874Z,4.25
2023-01-17T12:07:26.928Z,8.05
2023-01-17T12:10:07.729Z,5.75
2023-01-17T12:13:51.812Z,4.28
2023-01-17T12:16:31.887Z,4.40
2023-01-17T12:19:32.416Z,5.43
2023-01-17T12:22:37.664Z,11.85
2023-01-17T12:25:04.798Z,9.60
2023-01-17T12:28:00.454Z,8.73
2023-01-17T12:30:33.315Z,6.82
2023-01-17T12:33:19.281Z,5.15
2023-01-17T12:35:55.897Z,7.30
2023-01-17T12:38:41.166Z,4.60
2023-01-17T12:41:36.723Z,3.05
2023-01-17T12:44:04.070Z,4.72
2023-01-17T12:46:43.187Z,5.47
2023-01-17T12:49:38.180Z,4.38
2023-01-17T12:52:13.124Z,5.40
2023-01-17T12:54:44.390Z,6.28
2023-01-17T12:57:25.142Z,4.63
2023-01-17T13:00:04.612Z,7.68
2023-01-17T13:02:36.103Z,4.30
2023-01-17T13:05:23.732Z,6.18
2023-01-17T13:07:56.619Z,3.85
2023-01-17T13:10:48.583Z,3.22
2023-01-17T13:13:30.291Z,3.13
2023-01-17T13:16:23.851Z,10.32
2023-01-17T13:18:52.415Z,2.75
2023-01-17T13:21:31.341Z,6.45
2023-01-17T13:24:07.413Z,3.20
2023-01-17T13:26:52.956Z,2.38
2023-01-17T13:29:59.573Z,5.10
2023-01-17T13:32:56.112Z,2.70
2023-01-17T13:35:47.959Z,2.25
2023-01-17T13:38:37.563Z,3.35
2023-01-17T13:41:38.021Z,3.05
2023-01-17T13:44:24.681Z,2.17
2023-01-17T13:47:08.332Z,3.92
2023-01-17T13:49:49.394Z,4.43
2023-01-17T13:52:19.230Z,2.90
2023-01-17T13:54:54.902Z,4.47
2023-01-17T13:57:32.841Z,4.13
2023-01-17T14:00:21.427Z,5.97
2023-01-17T14:02:50.401Z,2.53
2023-01-17T14:05:22.916Z,3.65
2023-01-17T14:07:54.515Z,3.85
2023-01-17T14:10:45.564Z,4.32
2023-01-17T14:13:33.786Z,5.30
2023-01-17T14:16:02.504Z,7.78
2023-01-17T14:18:32.528Z,3.63
2023-01-17T14:21:10.584Z,4.00
2023-01-17T14:23:59.519Z,10.10
2023-01-17T14:26:31.691Z,3.38
2023-01-17T14:29:19.460Z,4.75
2023-01-17T14:31:46.934Z,3.45
2023-01-17T14:34:21.380Z,5.22
2023-01-17T14:36:48.808Z,4.70
2023-01-17T14:39:22.594Z,6.72
2023-01-17T14:41:49.444Z,5.95
2023-01-17T14:44:17.290Z,4.10
2023-01-17T14:46:48.637Z,4.13
2023-01-17T14:49:24.239Z,2.40
2023-01-17T14:52:02.227Z,3.50
2023-01-17T14:54:29.507Z,4.53
2023-01-17T14:57:24.731Z,5.68
2023-01-17T14:59:51.713Z,6.60
2023-01-17T15:02:19.208Z,5.20
2023-01-17T15:04:54.846Z,8.43
2023-01-17T15:07:22.676Z,5.18
2023-01-17T15:09:49.788Z,5.45
2023-01-17T15:12:16.988Z,4.40
2023-01-17T15:14:46.221Z,5.28
2023-01-17T15:17:21.497Z,4.32
2023-01-17T15:19:52.899Z,16.77
2023-01-17T15:22:20.180Z,7.72
2023-01-17T15:24:47.941Z,7.38
2023-01-17T15:27:16.909Z,3.63
2023-01-17T15:29:45.560Z,4.55
2023-01-17T15:32:22.365Z,1.90
2023-01-17T15:34:51.138Z,4.70
2023-01-17T15:37:39.893Z,5.72
2023-01-17T15:40:17.197Z,3.70
2023-01-17T15:42:47.645Z,3.55
2023-01-17T15:45:22.251Z,4.32
2023-01-17T15:47:49.392Z,3.70
2023-01-17T15:50:28.528Z,5.07
2023-01-17T15:52:58.493Z,4.10
2023-01-17T15:55:37.605Z,2.88
2023-01-17T15:58:21.654Z,3.30
2023-01-17T16:00:49.106Z,4.50
2023-01-17T16:03:23.858Z,4.78
2023-01-17T16:05:53.078Z,3.95
2023-01-17T16:08:27.625Z,6.60
2023-01-17T16:10:58.537Z,5.88
2023-01-17T16:13:25.524Z,5.68
2023-01-17T16:15:52.501Z,6.63
2023-01-17T16:18:23.941Z,5.18
2023-01-17T16:20:59.249Z,7.35
2023-01-17T16:23:27.287Z,14.70
2023-01-17T16:25:54.205Z,12.32
2023-01-17T16:28:21.228Z,5.57
2023-01-17T16:30:48.976Z,6.07
2023-01-17T16:33:16.198Z,7.97
2023-01-17T16:35:44.122Z,5.25
2023-01-17T16:38:15.476Z,8.20
2023-01-17T16:40:44.416Z,5.30
2023-01-17T16:43:12.782Z,8.60
2023-01-17T16:45:45.741Z,8.98
2023-01-17T16:48:12.947Z,9.55
2023-01-17T16:50:53.287Z,9.00
2023-01-17T16:53:25.855Z,5.20
2023-01-17T16:55:55.812Z,6.93
2023-01-17T16:58:23.064Z,5.45
2023-01-17T17:00:49.859Z,5.32
2023-01-17T17:03:18.246Z,6.07
2023-01-17T17:05:47.226Z,4.07
2023-01-17T17:08:15.444Z,7.25
2023-01-17T17:10:42.231Z,5.47
2023-01-17T17:13:09.097Z,8.02
2023-01-17T17:15:41.836Z,4.57
2023-01-17T17:18:16.027Z,6.18
2023-01-17T17:20:44.858Z,9.35
2023-01-17T17:23:11.801Z,5.60
2023-01-17T17:25:38.965Z,4.90
2023-01-17T17:28:06.357Z,5.45
2023-01-17T17:30:34.546Z,7.70
2023-01-17T17:33:04.511Z,8.75
2023-01-17T17:35:34.899Z,15.02
2023-01-17T17:38:02.121Z,14.23
2023-01-17T17:40:28.931Z,6.80
2023-01-17T17:42:55.731Z,5.97
2023-01-17T17:45:22.540Z,7.85
2023-01-17T17:47:49.383Z,6.57
2023-01-17T17:50:16.376Z,6.47
2023-01-17T17:52:44.244Z,6.30
2023-01-17T17:55:11.510Z,7.88
2023-01-17T17:57:38.863Z,7.28
2023-01-17T18:00:06.245Z,7.20
2023-01-17T18:02:33.561Z,7.05
2023-01-17T18:05:00.464Z,8.65
2023-01-17T18:07:29.887Z,7.80
2023-01-17T18:09:56.803Z,12.30
2023-01-17T18:12:23.661Z,19.90
2023-01-17T18:14:50.464Z,8.10
2023-01-17T18:17:20.272Z,10.18
2023-01-17T18:19:47.578Z,7.22
2023-01-17T18:22:14.373Z,10.25
2023-01-17T18:24:41.419Z,10.02
2023-01-17T18:27:10.416Z,8.98
2023-01-17T18:29:37.328Z,8.95
2023-01-17T18:32:04.535Z,9.48
2023-01-17T18:34:31.415Z,16.48
2023-01-17T18:36:58.500Z,10.05
2023-01-17T18:39:28.234Z,7.97
2023-01-17T18:41:55.390Z,9.18
2023-01-17T18:44:22.916Z,11.65
2023-01-17T18:46:53.915Z,12.52
2023-01-17T18:49:21.203Z,15.52
2023-01-17T18:51:51.095Z,19.15
2023-01-17T18:54:19.579Z,10.38
2023-01-17T18:56:46.423Z,13.00
2023-01-17T18:59:14.204Z,9.25
2023-01-17T19:01:44.671Z,10.75
2023-01-17T19:04:13.842Z,8.45
2023-01-17T19:06:43.074Z,11.40
2023-01-17T19:09:12.674Z,9.05
2023-01-17T19:11:39.949Z,18.50
2023-01-17T19:14:07.333Z,12.75
2023-01-17T19:16:39.585Z,16.40
2023-01-17T19:19:14.211Z,11.20
2023-01-17T19:21:41.357Z,11.65
2023-01-17T19:24:09.891Z,12.13
2023-01-17T19:26:36.769Z,11.95
2023-01-17T19:29:05.182Z,11.45
2023-01-17T19:31:36.029Z,11.00
2023-01-17T19:34:02.955Z,13.57
2023-01-17T19:36:34.342Z,11.40
2023-01-17T19:39:05.252Z,10.55
2023-01-17T19:41:37.967Z,13.65
2023-01-17T19:44:07.499Z,13.10
2023-01-17T19:46:35.785Z,15.82
2023-01-17T19:49:03.788Z,18.95
2023-01-17T19:51:30.642Z,17.02
2023-01-17T19:54:01.060Z,18.85
2023-01-17T19:56:29.355Z,17.65
2023-01-17T19:59:00.764Z,14.80
2023-01-17T20:01:30.744Z,20.67
2023-01-17T20:03:59.014Z,16.67
2023-01-17T20:06:29.140Z,20.38
2023-01-17T20:08:56.640Z,19.60
2023-01-17T20:11:24.892Z,17.77
2023-01-17T20:13:55.212Z,21.50
2023-01-17T20:16:23.655Z,22.88
2023-01-17T20:18:51.184Z,22.30
2023-01-17T20:21:20.347Z,18.08
2023-01-17T20:23:48.470Z,21.13
2023-01-17T20:26:17.414Z,23.42
2023-01-17T20:28:45.907Z,23.88
2023-01-17T20:31:21.852Z,24.27
2023-01-17T20:33:52.254Z,23.35
2023-01-17T20:36:21.212Z,29.52
2023-01-17T20:38:48.915Z,36.97
2023-01-17T20:41:24.654Z,29.77
2023-01-17T20:43:54.534Z,28.35
2023-01-17T20:46:23.338Z,26.45
2023-01-17T20:48:53.001Z,25.80
2023-01-17T20:51:21.795Z,29.83
2023-01-17T20:53:53.452Z,30.63
2023-01-17T20:56:22.641Z,28.35
2023-01-17T20:58:51.771Z,24.67
2023-01-17T21:01:19.622Z,24.13
2023-01-17T21:03:48.125Z,23.25
2023-01-17T21:06:15.478Z,20.30
2023-01-17T21:08:43.969Z,34.78
2023-01-17T21:11:13.235Z,31.42
2023-01-17T21:13:40.260Z,29.17
2023-01-17T21:16:09.320Z,34.95
2023-01-17T21:18:36.566Z,39.35
2023-01-17T21:21:10.645Z,42.97
2023-01-17T21:23:40.388Z,59.60
2023-01-17T21:26:09.261Z,46.90
2023-01-17T21:28:38.225Z,49.00
2023-01-17T21:31:20.440Z,41.20
2023-01-17T21:33:47.789Z,49.00
2023-01-17T21:36:14.737Z,54.40
2023-01-17T21:38:41.842Z,53.28
2023-01-17T21:41:09.180Z,56.80
2023-01-17T21:43:36.260Z,58.22
2023-01-17T21:46:05.526Z,48.60
2023-01-17T21:48:32.786Z,44.28
2023-01-17T21:51:06.896Z,40.03
2023-01-17T21:53:40.170Z,35.95
2023-01-17T21:56:29.262Z,28.60
2023-01-17T21:58:57.780Z,32.08
2023-01-17T22:01:30.109Z,27.92
2023-01-17T22:03:59.926Z,32.58
2023-01-17T22:06:29.253Z,27.77
2023-01-17T22:08:56.602Z,32.28
2023-01-17T22:11:26.032Z,40.17
2023-01-17T22:13:53.299Z,34.88
2023-01-17T22:16:26.051Z,27.55
2023-01-17T22:18:53.004Z,28.92
2023-01-17T22:21:21.953Z,23.35
2023-01-17T22:23:52.212Z,24.50
2023-01-17T22:26:23.814Z,25.38
2023-01-17T22:28:50.716Z,24.30
2023-01-17T22:31:25.682Z,26.67
2023-01-17T22:34:02.055Z,24.42
2023-01-17T22:36:32.099Z,24.98
2023-01-17T22:38:59.412Z,24.27
2023-01-17T22:41:33.711Z,23.27
2023-01-17T22:44:08.560Z,26.15
2023-01-17T22:46:40.442Z,26.70
2023-01-17T22:49:08.574Z,25.83
2023-01-17T22:51:35.602Z,25.42
2023-01-17T22:54:02.760Z,24.13
2023-01-17T22:56:32.339Z,29.40
2023-01-17T22:59:00.974Z,23.02
2023-01-17T23:01:32.685Z,26.95
2023-01-17T23:04:01.980Z,28.38
2023-01-17T23:06:37.207Z,27.50
2023-01-17T23:09:08.321Z,27.85
2023-01-17T23:11:43.282Z,28.70
2023-01-17T23:14:14.899Z,33.20
2023-01-17T23:17:07.544Z,29.50
2023-01-17T23:19:41.869Z,28.35
2023-01-17T23:22:20.676Z,26.02
2023-01-17T23:24:53.166Z,26.48
2023-01-17T23:27:44.652Z,27.70
2023-01-17T23:30:19.195Z,24.58
2023-01-17T23:32:52.676Z,26.45
2023-01-17T23:35:22.705Z,24.80
2023-01-17T23:38:08.220Z,25.63
2023-01-17T23:40:36.464Z,22.23
2023-01-17T23:43:23.102Z,24.17
2023-01-17T23:45:51.685Z,23.05
2023-01-17T23:48:19.388Z,19.25
2023-01-17T23:50:47.588Z,23.33
2023-01-17T23:53:22.181Z,19.45
2023-01-17T23:55:51.711Z,17.73
2023-01-17T23:58:19.826Z,21.30
